sensor_id;sensor_type;location;lat;lon;timestamp;P1;durP1;ratioP1;P2;durP2;ratioP2
52029;SDS011;38043;53.224;6.580;2023-09-12T00:01:04;40.78;;;27.75;;
52029;SDS011;38043;53.224;6.580;2023-09-12T00:03:31;36.72;;;26.05;;
52029;SDS011;38043;53.224;6.580;2023-09-12T00:05:58;45.80;;;31.83;;
52029;SDS011;38043;53.224;6.580;2023-09-12T00:08:24;43.80;;;29.52;;
52029;SDS011;38043;53.224;6.580;2023-09-12T00:11:07;39.10;;;29.02;;
52029;SDS011;38043;53.224;6.580;2023-09-12T00:13:40;41.42;;;29.88;;
52029;SDS011;38043;53.224;6.580;2023-09-12T00:16:07;40.17;;;29.27;;
52029;SDS011;38043;53.224;6.580;2023-09-12T00:18:39;39.17;;;28.33;;
52029;SDS011;38043;53.224;6.580;2023-09-12T00:21:05;38.88;;;27.65;;
52029;SDS011;38043;53.224;6.580;2023-09-12T00:23:31;40.08;;;28.85;;
52029;SDS011;38043;53.224;6.580;2023-09-12T00:25:57;48.95;;;29.95;;
52029;SDS011;38043;53.224;6.580;2023-09-12T00:28:22;38.75;;;25.83;;
52029;SDS011;38043;53.224;6.580;2023-09-12T00:30:49;38.42;;;27.88;;
52029;SDS011;38043;53.224;6.580;2023-09-12T00:33:14;38.20;;;27.73;;
52029;SDS011;38043;53.224;6.580;2023-09-12T00:35:43;41.13;;;28.65;;
52029;SDS011;38043;53.224;6.580;2023-09-12T00:38:10;39.83;;;28.92;;
52029;SDS011;38043;53.224;6.580;2023-09-12T00:40:35;33.55;;;25.75;;
52029;SDS011;38043;53.224;6.580;2023-09-12T00:43:02;39.72;;;26.10;;
52029;SDS011;38043;53.224;6.580;2023-09-12T00:45:28;40.75;;;26.50;;
52029;SDS011;38043;53.224;6.580;2023-09-12T00:47:54;38.78;;;27.77;;
52029;SDS011;38043;53.224;6.580;2023-09-12T00:50:22;41.58;;;27.85;;
52029;SDS011;38043;53.224;6.580;2023-09-12T00:52:53;38.47;;;29.30;;
52029;SDS011;38043;53.224;6.580;2023-09-12T00:55:19;37.72;;;28.25;;
52029;SDS011;38043;53.224;6.580;2023-09-12T00:57:45;40.90;;;27.38;;
52029;SDS011;38043;53.224;6.580;2023-09-12T01:00:12;38.10;;;26.23;;
52029;SDS011;38043;53.224;6.580;2023-09-12T01:02:39;37.90;;;28.43;;
52029;SDS011;38043;53.224;6.580;2023-09-12T01:05:06;36.45;;;26.45;;
52029;SDS011;38043;53.224;6.580;2023-09-12T01:07:33;43.33;;;28.35;;
52029;SDS011;38043;53.224;6.580;2023-09-12T01:09:59;36.75;;;26.83;;
52029;SDS011;38043;53.224;6.580;2023-09-12T01:12:25;43.83;;;27.95;;
52029;SDS011;38043;53.224;6.580;2023-09-12T01:14:51;35.72;;;27.65;;
52029;SDS011;38043;53.224;6.580;2023-09-12T01:17:16;43.63;;;29.38;;
52029;SDS011;38043;53.224;6.580;2023-09-12T01:19:42;40.05;;;29.73;;
52029;SDS011;38043;53.224;6.580;2023-09-12T01:29:57;42.90;;;30.92;;
52029;SDS011;38043;53.224;6.580;2023-09-12T01:32:29;38.22;;;28.50;;
52029;SDS011;38043;53.224;6.580;2023-09-12T01:34:56;40.08;;;28.23;;
52029;SDS011;38043;53.224;6.580;2023-09-12T01:37:22;42.05;;;30.58;;
52029;SDS011;38043;53.224;6.580;2023-09-12T01:39:47;40.25;;;28.95;;
52029;SDS011;38043;53.224;6.580;2023-09-12T01:42:14;41.92;;;30.20;;
52029;SDS011;38043;53.224;6.580;2023-09-12T01:44:43;39.25;;;29.70;;
52029;SDS011;38043;53.224;6.580;2023-09-12T01:47:10;41.85;;;29.30;;
52029;SDS011;38043;53.224;6.580;2023-09-12T01:49:38;39.25;;;29.00;;
52029;SDS011;38043;53.224;6.580;2023-09-12T01:52:07;44.47;;;31.55;;
52029;SDS011;38043;53.224;6.580;2023-09-12T01:54:34;43.58;;;31.40;;
52029;SDS011;38043;53.224;6.580;2023-09-12T01:57:01;43.30;;;30.47;;
52029;SDS011;38043;53.224;6.580;2023-09-12T01:59:28;43.90;;;30.88;;
52029;SDS011;38043;53.224;6.580;2023-09-12T02:01:54;42.23;;;32.07;;
52029;SDS011;38043;53.224;6.580;2023-09-12T02:04:20;42.13;;;31.17;;
52029;SDS011;38043;53.224;6.580;2023-09-12T02:06:46;45.25;;;31.98;;
52029;SDS011;38043;53.224;6.580;2023-09-12T02:09:11;48.22;;;32.78;;
52029;SDS011;38043;53.224;6.580;2023-09-12T02:11:37;43.28;;;31.58;;
52029;SDS011;38043;53.224;6.580;2023-09-12T02:14:04;48.65;;;33.80;;
52029;SDS011;38043;53.224;6.580;2023-09-12T02:16:31;47.08;;;33.17;;
52029;SDS011;38043;53.224;6.580;2023-09-12T02:18:56;47.70;;;32.80;;
52029;SDS011;38043;53.224;6.580;2023-09-12T02:21:22;44.88;;;31.35;;
52029;SDS011;38043;53.224;6.580;2023-09-12T02:23:47;38.70;;;29.27;;
52029;SDS011;38043;53.224;6.580;2023-09-12T02:26:14;46.88;;;32.55;;
52029;SDS011;38043;53.224;6.580;2023-09-12T02:28:40;45.88;;;32.45;;
52029;SDS011;38043;53.224;6.580;2023-09-12T02:31:12;45.92;;;31.25;;
52029;SDS011;38043;53.224;6.580;2023-09-12T02:33:38;49.25;;;33.75;;
52029;SDS011;38043;53.224;6.580;2023-09-12T02:36:04;47.47;;;33.03;;
52029;SDS011;38043;53.224;6.580;2023-09-12T02:38:30;49.25;;;34.90;;
52029;SDS011;38043;53.224;6.580;2023-09-12T02:40:56;44.20;;;33.47;;
52029;SDS011;38043;53.224;6.580;2023-09-12T02:43:22;48.42;;;34.42;;
52029;SDS011;38043;53.224;6.580;2023-09-12T02:45:47;50.22;;;35.55;;
52029;SDS011;38043;53.224;6.580;2023-09-12T02:48:13;47.38;;;33.47;;
52029;SDS011;38043;53.224;6.580;2023-09-12T02:50:39;47.38;;;33.83;;
52029;SDS011;38043;53.224;6.580;2023-09-12T02:53:04;44.33;;;32.33;;
52029;SDS011;38043;53.224;6.580;2023-09-12T02:55:31;48.10;;;35.95;;
52029;SDS011;38043;53.224;6.580;2023-09-12T02:57:57;49.53;;;34.33;;
52029;SDS011;38043;53.224;6.580;2023-09-12T03:00:22;51.42;;;35.78;;
52029;SDS011;38043;53.224;6.580;2023-09-12T03:02:48;47.03;;;34.35;;
52029;SDS011;38043;53.224;6.580;2023-09-12T03:05:14;48.20;;;35.15;;
52029;SDS011;38043;53.224;6.580;2023-09-12T03:07:40;50.72;;;36.17;;
52029;SDS011;38043;53.224;6.580;2023-09-12T03:10:05;51.20;;;34.85;;
52029;SDS011;38043;53.224;6.580;2023-09-12T03:12:31;49.90;;;34.13;;
52029;SDS011;38043;53.224;6.580;2023-09-12T03:14:57;52.50;;;33.88;;
52029;SDS011;38043;53.224;6.580;2023-09-12T03:17:23;47.33;;;33.38;;
52029;SDS011;38043;53.224;6.580;2023-09-12T03:19:48;53.60;;;33.90;;
52029;SDS011;38043;53.224;6.580;2023-09-12T03:22:14;46.35;;;32.83;;
52029;SDS011;38043;53.224;6.580;2023-09-12T03:24:40;47.35;;;32.92;;
52029;SDS011;38043;53.224;6.580;2023-09-12T03:27:06;41.08;;;29.88;;
52029;SDS011;38043;53.224;6.580;2023-09-12T03:29:36;46.05;;;32.03;;
52029;SDS011;38043;53.224;6.580;2023-09-12T03:32:01;48.30;;;32.83;;
52029;SDS011;38043;53.224;6.580;2023-09-12T03:34:30;51.10;;;32.22;;
52029;SDS011;38043;53.224;6.580;2023-09-12T03:36:56;44.83;;;31.90;;
52029;SDS011;38043;53.224;6.580;2023-09-12T03:39:21;44.15;;;32.58;;
52029;SDS011;38043;53.224;6.580;2023-09-12T03:41:47;44.72;;;30.52;;
52029;SDS011;38043;53.224;6.580;2023-09-12T03:44:13;47.00;;;30.92;;
52029;SDS011;38043;53.224;6.580;2023-09-12T03:46:38;41.67;;;30.02;;
52029;SDS011;38043;53.224;6.580;2023-09-12T03:49:04;41.65;;;29.02;;
52029;SDS011;38043;53.224;6.580;2023-09-12T03:51:29;42.78;;;28.23;;
52029;SDS011;38043;53.224;6.580;2023-09-12T03:53:55;38.33;;;26.42;;
52029;SDS011;38043;53.224;6.580;2023-09-12T03:56:21;35.92;;;27.02;;
52029;SDS011;38043;53.224;6.580;2023-09-12T03:58:46;37.92;;;27.27;;
52029;SDS011;38043;53.224;6.580;2023-09-12T04:01:12;41.05;;;28.90;;
52029;SDS011;38043;53.224;6.580;2023-09-12T04:03:38;38.75;;;27.52;;
52029;SDS011;38043;53.224;6.580;2023-09-12T04:06:03;37.13;;;27.48;;
52029;SDS011;38043;53.224;6.580;2023-09-12T04:08:29;37.40;;;28.25;;
52029;SDS011;38043;53.224;6.580;2023-09-12T04:10:55;44.30;;;28.17;;
52029;SDS011;38043;53.224;6.580;2023-09-12T04:13:21;49.33;;;30.73;;
52029;SDS011;38043;53.224;6.580;2023-09-12T04:15:46;43.05;;;30.77;;
52029;SDS011;38043;53.224;6.580;2023-09-12T04:18:13;38.25;;;27.95;;
52029;SDS011;38043;53.224;6.580;2023-09-12T04:20:38;43.55;;;28.80;;
52029;SDS011;38043;53.224;6.580;2023-09-12T04:23:04;52.13;;;33.55;;
52029;SDS011;38043;53.224;6.580;2023-09-12T04:25:30;50.28;;;32.13;;
52029;SDS011;38043;53.224;6.580;2023-09-12T04:27:56;42.92;;;30.38;;
52029;SDS011;38043;53.224;6.580;2023-09-12T04:30:22;46.47;;;32.17;;
52029;SDS011;38043;53.224;6.580;2023-09-12T04:32:47;42.25;;;30.67;;
52029;SDS011;38043;53.224;6.580;2023-09-12T04:35:13;47.33;;;31.38;;
52029;SDS011;38043;53.224;6.580;2023-09-12T04:37:39;43.67;;;30.80;;
52029;SDS011;38043;53.224;6.580;2023-09-12T04:40:04;48.67;;;31.55;;
52029;SDS011;38043;53.224;6.580;2023-09-12T04:42:31;41.33;;;29.30;;
52029;SDS011;38043;53.224;6.580;2023-09-12T04:44:57;43.35;;;28.88;;
52029;SDS011;38043;53.224;6.580;2023-09-12T04:47:23;44.53;;;29.70;;
52029;SDS011;38043;53.224;6.580;2023-09-12T04:49:49;49.40;;;32.85;;
52029;SDS011;38043;53.224;6.580;2023-09-12T04:52:14;48.78;;;32.60;;
52029;SDS011;38043;53.224;6.580;2023-09-12T04:54:40;43.92;;;30.83;;
52029;SDS011;38043;53.224;6.580;2023-09-12T04:57:06;49.90;;;31.67;;
52029;SDS011;38043;53.224;6.580;2023-09-12T04:59:33;48.67;;;33.28;;
52029;SDS011;38043;53.224;6.580;2023-09-12T05:01:59;48.80;;;31.55;;
52029;SDS011;38043;53.224;6.580;2023-09-12T05:04:24;43.80;;;31.85;;
52029;SDS011;38043;53.224;6.580;2023-09-12T05:06:50;55.08;;;33.25;;
52029;SDS011;38043;53.224;6.580;2023-09-12T05:09:16;44.55;;;30.17;;
52029;SDS011;38043;53.224;6.580;2023-09-12T05:11:41;43.13;;;30.77;;
52029;SDS011;38043;53.224;6.580;2023-09-12T05:14:07;43.72;;;31.38;;
52029;SDS011;38043;53.224;6.580;2023-09-12T05:16:33;51.83;;;32.70;;
52029;SDS011;38043;53.224;6.580;2023-09-12T05:18:59;47.53;;;31.85;;
52029;SDS011;38043;53.224;6.580;2023-09-12T05:21:28;49.47;;;31.85;;
52029;SDS011;38043;53.224;6.580;2023-09-12T05:23:54;48.83;;;32.15;;
52029;SDS011;38043;53.224;6.580;2023-09-12T05:26:21;51.97;;;33.85;;
52029;SDS011;38043;53.224;6.580;2023-09-12T05:28:46;46.45;;;32.95;;
52029;SDS011;38043;53.224;6.580;2023-09-12T05:31:12;48.20;;;32.13;;
52029;SDS011;38043;53.224;6.580;2023-09-12T05:33:38;50.08;;;32.13;;
52029;SDS011;38043;53.224;6.580;2023-09-12T05:36:03;47.35;;;31.08;;
52029;SDS011;38043;53.224;6.580;2023-09-12T05:38:29;48.15;;;32.38;;
52029;SDS011;38043;53.224;6.580;2023-09-12T05:40:55;48.40;;;31.83;;
52029;SDS011;38043;53.224;6.580;2023-09-12T05:43:22;54.17;;;34.75;;
52029;SDS011;38043;53.224;6.580;2023-09-12T05:45:47;56.70;;;34.20;;
52029;SDS011;38043;53.224;6.580;2023-09-12T05:48:14;57.85;;;35.70;;
52029;SDS011;38043;53.224;6.580;2023-09-12T05:50:39;53.28;;;33.47;;
52029;SDS011;38043;53.224;6.580;2023-09-12T05:53:05;55.40;;;33.25;;
52029;SDS011;38043;53.224;6.580;2023-09-12T05:55:31;62.90;;;36.03;;
52029;SDS011;38043;53.224;6.580;2023-09-12T05:57:56;59.30;;;33.88;;
52029;SDS011;38043;53.224;6.580;2023-09-12T06:00:22;59.50;;;36.00;;
52029;SDS011;38043;53.224;6.580;2023-09-12T06:02:48;55.67;;;33.10;;
52029;SDS011;38043;53.224;6.580;2023-09-12T06:05:14;52.15;;;34.50;;
52029;SDS011;38043;53.224;6.580;2023-09-12T06:07:40;56.13;;;33.90;;
52029;SDS011;38043;53.224;6.580;2023-09-12T06:10:07;51.30;;;33.97;;
52029;SDS011;38043;53.224;6.580;2023-09-12T06:12:33;53.95;;;35.80;;
52029;SDS011;38043;53.224;6.580;2023-09-12T06:15:01;50.92;;;35.60;;
52029;SDS011;38043;53.224;6.580;2023-09-12T06:17:29;55.03;;;34.60;;
52029;SDS011;38043;53.224;6.580;2023-09-12T06:19:55;68.45;;;36.40;;
52029;SDS011;38043;53.224;6.580;2023-09-12T06:22:23;63.72;;;37.15;;
52029;SDS011;38043;53.224;6.580;2023-09-12T06:24:50;62.63;;;37.97;;
52029;SDS011;38043;53.224;6.580;2023-09-12T06:27:16;69.45;;;37.33;;
52029;SDS011;38043;53.224;6.580;2023-09-12T06:29:44;73.85;;;40.00;;
52029;SDS011;38043;53.224;6.580;2023-09-12T06:32:14;74.28;;;39.95;;
52029;SDS011;38043;53.224;6.580;2023-09-12T06:37:08;78.20;;;40.72;;
52029;SDS011;38043;53.224;6.580;2023-09-12T06:39:35;81.47;;;39.47;;
52029;SDS011;38043;53.224;6.580;2023-09-12T06:42:01;75.40;;;40.13;;
52029;SDS011;38043;53.224;6.580;2023-09-12T06:44:28;76.93;;;38.95;;
52029;SDS011;38043;53.224;6.580;2023-09-12T06:46:54;77.40;;;38.13;;
52029;SDS011;38043;53.224;6.580;2023-09-12T06:49:19;83.85;;;39.75;;
52029;SDS011;38043;53.224;6.580;2023-09-12T06:51:45;77.53;;;38.35;;
52029;SDS011;38043;53.224;6.580;2023-09-12T06:54:11;76.53;;;37.40;;
52029;SDS011;38043;53.224;6.580;2023-09-12T06:56:37;82.57;;;39.58;;
52029;SDS011;38043;53.224;6.580;2023-09-12T06:59:03;83.32;;;38.88;;
52029;SDS011;38043;53.224;6.580;2023-09-12T07:01:29;83.15;;;40.20;;
52029;SDS011;38043;53.224;6.580;2023-09-12T07:03:56;100.53;;;44.38;;
52029;SDS011;38043;53.224;6.580;2023-09-12T07:06:22;83.35;;;40.35;;
52029;SDS011;38043;53.224;6.580;2023-09-12T07:08:48;79.47;;;39.03;;
52029;SDS011;38043;53.224;6.580;2023-09-12T07:11:19;73.68;;;40.13;;
52029;SDS011;38043;53.224;6.580;2023-09-12T07:13:45;72.47;;;39.42;;
52029;SDS011;38043;53.224;6.580;2023-09-12T07:16:11;81.53;;;40.55;;
52029;SDS011;38043;53.224;6.580;2023-09-12T07:18:37;68.20;;;38.47;;
52029;SDS011;38043;53.224;6.580;2023-09-12T07:21:04;78.68;;;39.38;;
52029;SDS011;38043;53.224;6.580;2023-09-12T07:23:31;66.18;;;37.38;;
52029;SDS011;38043;53.224;6.580;2023-09-12T07:25:57;72.40;;;39.33;;
52029;SDS011;38043;53.224;6.580;2023-09-12T07:28:23;72.40;;;37.97;;
52029;SDS011;38043;53.224;6.580;2023-09-12T07:30:49;65.00;;;36.03;;
52029;SDS011;38043;53.224;6.580;2023-09-12T07:33:15;64.30;;;37.60;;
52029;SDS011;38043;53.224;6.580;2023-09-12T07:35:41;64.07;;;37.40;;
52029;SDS011;38043;53.224;6.580;2023-09-12T07:38:07;59.17;;;36.75;;
52029;SDS011;38043;53.224;6.580;2023-09-12T07:40:33;64.70;;;38.50;;
52029;SDS011;38043;53.224;6.580;2023-09-12T07:42:59;62.42;;;35.28;;
52029;SDS011;38043;53.224;6.580;2023-09-12T07:45:24;63.97;;;37.40;;
52029;SDS011;38043;53.224;6.580;2023-09-12T07:47:50;61.45;;;35.67;;
52029;SDS011;38043;53.224;6.580;2023-09-12T07:50:16;56.60;;;33.97;;
52029;SDS011;38043;53.224;6.580;2023-09-12T07:52:42;57.85;;;36.22;;
52029;SDS011;38043;53.224;6.580;2023-09-12T07:55:07;62.60;;;37.88;;
52029;SDS011;38043;53.224;6.580;2023-09-12T07:57:33;59.95;;;36.53;;
52029;SDS011;38043;53.224;6.580;2023-09-12T08:00:00;62.05;;;35.95;;
52029;SDS011;38043;53.224;6.580;2023-09-12T08:02:26;64.18;;;36.90;;
52029;SDS011;38043;53.224;6.580;2023-09-12T08:04:52;62.22;;;37.35;;
52029;SDS011;38043;53.224;6.580;2023-09-12T08:07:18;62.00;;;37.92;;
52029;SDS011;38043;53.224;6.580;2023-09-12T08:09:55;61.55;;;37.22;;
52029;SDS011;38043;53.224;6.580;2023-09-12T08:12:22;62.67;;;37.15;;
52029;SDS011;38043;53.224;6.580;2023-09-12T08:14:51;57.38;;;36.35;;
52029;SDS011;38043;53.224;6.580;2023-09-12T08:17:17;58.63;;;37.13;;
52029;SDS011;38043;53.224;6.580;2023-09-12T08:19:42;61.97;;;37.20;;
52029;SDS011;38043;53.224;6.580;2023-09-12T08:22:10;55.78;;;35.67;;
52029;SDS011;38043;53.224;6.580;2023-09-12T08:24:37;53.78;;;34.75;;
52029;SDS011;38043;53.224;6.580;2023-09-12T08:27:04;54.77;;;34.30;;
52029;SDS011;38043;53.224;6.580;2023-09-12T08:29:30;60.78;;;37.80;;
52029;SDS011;38043;53.224;6.580;2023-09-12T08:31:57;62.92;;;36.70;;
52029;SDS011;38043;53.224;6.580;2023-09-12T08:34:23;63.35;;;34.60;;
52029;SDS011;38043;53.224;6.580;2023-09-12T08:36:49;57.65;;;35.90;;
52029;SDS011;38043;53.224;6.580;2023-09-12T08:39:16;58.05;;;35.78;;
52029;SDS011;38043;53.224;6.580;2023-09-12T08:41:43;55.92;;;36.03;;
52029;SDS011;38043;53.224;6.580;2023-09-12T08:44:11;56.90;;;33.10;;
52029;SDS011;38043;53.224;6.580;2023-09-12T08:46:39;55.83;;;34.28;;
52029;SDS011;38043;53.224;6.580;2023-09-12T08:49:09;57.13;;;32.47;;
52029;SDS011;38043;53.224;6.580;2023-09-12T08:51:37;54.40;;;33.83;;
52029;SDS011;38043;53.224;6.580;2023-09-12T08:54:03;54.28;;;30.80;;
52029;SDS011;38043;53.224;6.580;2023-09-12T08:56:32;56.25;;;31.65;;
52029;SDS011;38043;53.224;6.580;2023-09-12T08:59:00;46.35;;;29.55;;
52029;SDS011;38043;53.224;6.580;2023-09-12T09:01:26;46.75;;;30.55;;
52029;SDS011;38043;53.224;6.580;2023-09-12T09:03:56;48.78;;;30.13;;
52029;SDS011;38043;53.224;6.580;2023-09-12T09:06:22;46.03;;;28.67;;
52029;SDS011;38043;53.224;6.580;2023-09-12T09:08:49;43.67;;;27.75;;
52029;SDS011;38043;53.224;6.580;2023-09-12T09:11:18;43.88;;;30.00;;
52029;SDS011;38043;53.224;6.580;2023-09-12T09:13:43;48.92;;;28.88;;
52029;SDS011;38043;53.224;6.580;2023-09-12T09:16:10;46.92;;;28.08;;
52029;SDS011;38043;53.224;6.580;2023-09-12T09:18:53;50.72;;;29.83;;
52029;SDS011;38043;53.224;6.580;2023-09-12T09:21:21;47.42;;;29.40;;
52029;SDS011;38043;53.224;6.580;2023-09-12T09:23:51;44.90;;;29.08;;
52029;SDS011;38043;53.224;6.580;2023-09-12T09:26:20;46.45;;;31.00;;
52029;SDS011;38043;53.224;6.580;2023-09-12T09:29:06;45.05;;;28.42;;
52029;SDS011;38043;53.224;6.580;2023-09-12T09:31:33;47.85;;;30.00;;
52029;SDS011;38043;53.224;6.580;2023-09-12T09:34:00;45.42;;;28.98;;
52029;SDS011;38043;53.224;6.580;2023-09-12T09:36:26;43.35;;;29.25;;
52029;SDS011;38043;53.224;6.580;2023-09-12T09:38:53;50.50;;;31.05;;
52029;SDS011;38043;53.224;6.580;2023-09-12T09:41:20;45.88;;;28.10;;
52029;SDS011;38043;53.224;6.580;2023-09-12T09:43:50;47.85;;;30.25;;
52029;SDS011;38043;53.224;6.580;2023-09-12T09:46:17;44.65;;;29.30;;
52029;SDS011;38043;53.224;6.580;2023-09-12T09:48:50;46.15;;;30.13;;
52029;SDS011;38043;53.224;6.580;2023-09-12T09:51:16;44.22;;;28.52;;
52029;SDS011;38043;53.224;6.580;2023-09-12T09:53:43;46.17;;;29.20;;
52029;SDS011;38043;53.224;6.580;2023-09-12T09:56:09;43.58;;;28.48;;
52029;SDS011;38043;53.224;6.580;2023-09-12T09:58:57;45.72;;;29.58;;
52029;SDS011;38043;53.224;6.580;2023-09-12T10:01:25;47.35;;;29.98;;
52029;SDS011;38043;53.224;6.580;2023-09-12T10:03:53;47.47;;;30.40;;
52029;SDS011;38043;53.224;6.580;2023-09-12T10:06:24;43.47;;;30.23;;
52029;SDS011;38043;53.224;6.580;2023-09-12T10:08:54;46.83;;;31.75;;
52029;SDS011;38043;53.224;6.580;2023-09-12T10:11:24;46.92;;;30.42;;
52029;SDS011;38043;53.224;6.580;2023-09-12T10:13:54;45.00;;;30.42;;
52029;SDS011;38043;53.224;6.580;2023-09-12T10:16:25;44.42;;;29.27;;
52029;SDS011;38043;53.224;6.580;2023-09-12T10:21:49;43.97;;;30.48;;
52029;SDS011;38043;53.224;6.580;2023-09-12T10:24:35;47.40;;;31.10;;
52029;SDS011;38043;53.224;6.580;2023-09-12T10:27:05;45.85;;;31.77;;
52029;SDS011;38043;53.224;6.580;2023-09-12T10:29:31;43.25;;;28.77;;
52029;SDS011;38043;53.224;6.580;2023-09-12T10:31:57;43.03;;;28.38;;
52029;SDS011;38043;53.224;6.580;2023-09-12T10:34:24;42.65;;;28.42;;
52029;SDS011;38043;53.224;6.580;2023-09-12T10:36:51;41.30;;;27.30;;
52029;SDS011;38043;53.224;6.580;2023-09-12T10:39:20;49.25;;;28.55;;
52029;SDS011;38043;53.224;6.580;2023-09-12T10:44:15;39.90;;;25.60;;
52029;SDS011;38043;53.224;6.580;2023-09-12T10:49:13;33.72;;;25.75;;
52029;SDS011;38043;53.224;6.580;2023-09-12T10:51:40;37.45;;;25.15;;
52029;SDS011;38043;53.224;6.580;2023-09-12T10:54:08;38.53;;;27.10;;
52029;SDS011;38043;53.224;6.580;2023-09-12T10:56:38;39.58;;;26.02;;
52029;SDS011;38043;53.224;6.580;2023-09-12T11:01:32;35.88;;;25.50;;
52029;SDS011;38043;53.224;6.580;2023-09-12T11:06:49;33.88;;;24.95;;
52029;SDS011;38043;53.224;6.580;2023-09-12T11:11:43;36.17;;;24.27;;
52029;SDS011;38043;53.224;6.580;2023-09-12T11:14:13;38.83;;;25.55;;
52029;SDS011;38043;53.224;6.580;2023-09-12T11:16:40;35.38;;;23.48;;
52029;SDS011;38043;53.224;6.580;2023-09-12T11:19:16;40.47;;;25.65;;
52029;SDS011;38043;53.224;6.580;2023-09-12T11:21:51;37.97;;;27.58;;
52029;SDS011;38043;53.224;6.580;2023-09-12T11:24:19;38.15;;;26.77;;
52029;SDS011;38043;53.224;6.580;2023-09-12T11:27:01;35.63;;;25.17;;
52029;SDS011;38043;53.224;6.580;2023-09-12T11:29:37;41.53;;;25.60;;
52029;SDS011;38043;53.224;6.580;2023-09-12T11:32:04;44.13;;;27.92;;
52029;SDS011;38043;53.224;6.580;2023-09-12T11:34:37;35.22;;;25.17;;
52029;SDS011;38043;53.224;6.580;2023-09-12T11:37:06;36.80;;;26.48;;
52029;SDS011;38043;53.224;6.580;2023-09-12T11:39:32;35.55;;;24.65;;
52029;SDS011;38043;53.224;6.580;2023-09-12T11:42:00;31.27;;;20.58;;
52029;SDS011;38043;53.224;6.580;2023-09-12T11:44:27;31.23;;;20.95;;
52029;SDS011;38043;53.224;6.580;2023-09-12T11:46:54;33.75;;;23.17;;
52029;SDS011;38043;53.224;6.580;2023-09-12T11:49:20;35.90;;;22.63;;
52029;SDS011;38043;53.224;6.580;2023-09-12T11:51:55;34.53;;;25.02;;
52029;SDS011;38043;53.224;6.580;2023-09-12T11:54:24;42.47;;;24.90;;
52029;SDS011;38043;53.224;6.580;2023-09-12T11:56:51;39.20;;;23.50;;
52029;SDS011;38043;53.224;6.580;2023-09-12T11:59:24;32.03;;;20.35;;
52029;SDS011;38043;53.224;6.580;2023-09-12T12:01:51;32.25;;;20.30;;
52029;SDS011;38043;53.224;6.580;2023-09-12T12:04:18;31.27;;;19.52;;
52029;SDS011;38043;53.224;6.580;2023-09-12T12:06:47;27.25;;;17.85;;
52029;SDS011;38043;53.224;6.580;2023-09-12T12:09:13;32.22;;;21.00;;
52029;SDS011;38043;53.224;6.580;2023-09-12T12:11:42;27.63;;;20.13;;
52029;SDS011;38043;53.224;6.580;2023-09-12T12:14:14;26.17;;;18.77;;
52029;SDS011;38043;53.224;6.580;2023-09-12T12:16:42;29.55;;;19.77;;
52029;SDS011;38043;53.224;6.580;2023-09-12T12:19:09;27.80;;;18.70;;
52029;SDS011;38043;53.224;6.580;2023-09-12T12:21:36;28.38;;;20.75;;
52029;SDS011;38043;53.224;6.580;2023-09-12T12:24:03;29.52;;;19.98;;
52029;SDS011;38043;53.224;6.580;2023-09-12T12:26:32;31.75;;;19.25;;
52029;SDS011;38043;53.224;6.580;2023-09-12T12:28:59;30.92;;;22.17;;
52029;SDS011;38043;53.224;6.580;2023-09-12T12:33:55;30.67;;;19.65;;
52029;SDS011;38043;53.224;6.580;2023-09-12T12:36:22;30.63;;;21.25;;
52029;SDS011;38043;53.224;6.580;2023-09-12T12:38:49;31.33;;;20.08;;
52029;SDS011;38043;53.224;6.580;2023-09-12T12:41:16;31.38;;;20.73;;
52029;SDS011;38043;53.224;6.580;2023-09-12T12:43:49;28.23;;;19.75;;
52029;SDS011;38043;53.224;6.580;2023-09-12T12:46:18;32.90;;;19.63;;
52029;SDS011;38043;53.224;6.580;2023-09-12T12:48:46;20.00;;;12.20;;
52029;SDS011;38043;53.224;6.580;2023-09-12T12:51:13;18.92;;;11.00;;
52029;SDS011;38043;53.224;6.580;2023-09-12T12:53:41;21.85;;;12.13;;
52029;SDS011;38043;53.224;6.580;2023-09-12T12:56:08;17.52;;;11.85;;
52029;SDS011;38043;53.224;6.580;2023-09-12T12:58:36;16.85;;;11.15;;
52029;SDS011;38043;53.224;6.580;2023-09-12T13:01:10;16.13;;;11.90;;
52029;SDS011;38043;53.224;6.580;2023-09-12T13:03:35;17.85;;;11.35;;
52029;SDS011;38043;53.224;6.580;2023-09-12T13:06:01;18.13;;;12.20;;
52029;SDS011;38043;53.224;6.580;2023-09-12T13:08:27;24.85;;;13.50;;
52029;SDS011;38043;53.224;6.580;2023-09-12T13:10:53;22.58;;;13.65;;
52029;SDS011;38043;53.224;6.580;2023-09-12T13:13:18;22.17;;;15.18;;
52029;SDS011;38043;53.224;6.580;2023-09-12T13:15:44;19.30;;;14.18;;
52029;SDS011;38043;53.224;6.580;2023-09-12T13:18:10;24.58;;;16.50;;
52029;SDS011;38043;53.224;6.580;2023-09-12T13:20:35;20.52;;;15.40;;
52029;SDS011;38043;53.224;6.580;2023-09-12T13:23:01;21.35;;;15.60;;
52029;SDS011;38043;53.224;6.580;2023-09-12T13:25:27;23.13;;;15.68;;
52029;SDS011;38043;53.224;6.580;2023-09-12T13:27:52;23.30;;;17.08;;
52029;SDS011;38043;53.224;6.580;2023-09-12T13:30:18;21.98;;;15.05;;
52029;SDS011;38043;53.224;6.580;2023-09-12T13:32:44;23.98;;;15.45;;
52029;SDS011;38043;53.224;6.580;2023-09-12T13:35:11;22.50;;;14.80;;
52029;SDS011;38043;53.224;6.580;2023-09-12T13:37:37;17.65;;;13.35;;
52029;SDS011;38043;53.224;6.580;2023-09-12T13:40:03;16.83;;;13.18;;
52029;SDS011;38043;53.224;6.580;2023-09-12T13:42:31;18.60;;;13.60;;
52029;SDS011;38043;53.224;6.580;2023-09-12T13:44:57;19.70;;;13.80;;
52029;SDS011;38043;53.224;6.580;2023-09-12T13:47:23;18.90;;;13.73;;
52029;SDS011;38043;53.224;6.580;2023-09-12T13:49:50;19.38;;;14.48;;
52029;SDS011;38043;53.224;6.580;2023-09-12T13:52:22;22.50;;;13.73;;
52029;SDS011;38043;53.224;6.580;2023-09-12T13:54:51;18.92;;;12.30;;
52029;SDS011;38043;53.224;6.580;2023-09-12T13:57:17;18.33;;;12.82;;
52029;SDS011;38043;53.224;6.580;2023-09-12T13:59:42;17.40;;;11.98;;
52029;SDS011;38043;53.224;6.580;2023-09-12T14:02:08;18.17;;;13.05;;
52029;SDS011;38043;53.224;6.580;2023-09-12T14:04:34;18.50;;;13.23;;
52029;SDS011;38043;53.224;6.580;2023-09-12T14:07:00;18.00;;;11.55;;
52029;SDS011;38043;53.224;6.580;2023-09-12T14:09:26;15.35;;;11.18;;
52029;SDS011;38043;53.224;6.580;2023-09-12T14:11:51;13.85;;;10.50;;
52029;SDS011;38043;53.224;6.580;2023-09-12T14:14:17;15.27;;;10.10;;
52029;SDS011;38043;53.224;6.580;2023-09-12T14:16:43;14.80;;;9.93;;
52029;SDS011;38043;53.224;6.580;2023-09-12T14:19:10;13.43;;;9.57;;
52029;SDS011;38043;53.224;6.580;2023-09-12T14:21:39;13.10;;;9.57;;
52029;SDS011;38043;53.224;6.580;2023-09-12T14:24:05;15.20;;;10.13;;
52029;SDS011;38043;53.224;6.580;2023-09-12T14:26:31;12.90;;;9.18;;
52029;SDS011;38043;53.224;6.580;2023-09-12T14:28:57;11.20;;;8.68;;
52029;SDS011;38043;53.224;6.580;2023-09-12T14:31:23;10.05;;;8.52;;
52029;SDS011;38043;53.224;6.580;2023-09-12T14:33:49;12.55;;;8.98;;
52029;SDS011;38043;53.224;6.580;2023-09-12T14:36:17;11.45;;;8.40;;
52029;SDS011;38043;53.224;6.580;2023-09-12T14:38:44;13.85;;;9.90;;
52029;SDS011;38043;53.224;6.580;2023-09-12T14:41:12;16.25;;;9.30;;
52029;SDS011;38043;53.224;6.580;2023-09-12T14:46:07;14.02;;;9.82;;
52029;SDS011;38043;53.224;6.580;2023-09-12T14:48:33;12.57;;;8.52;;
52029;SDS011;38043;53.224;6.580;2023-09-12T14:51:01;13.43;;;9.73;;